Averill Park, New York
Current Conditions -  °F | °C
As of 6:51 AM on Sunday 23 Nov 2014 (Local Time) from KALB Reporting Station
Overcast Overcast  
Wind Chill: 36°   Ceiling: 3200
Heat Index: 41°   Visibility: 10mi
Dew Point: 28°   Wind: 7mph
Humidity: 60%   Direction: 170°S
Pressure: 30.11"   Gusts: NA
Location:  42.64°N, 73.55°W
Report Text: KALB 231151Z 17006KT 10SM OVC032 05/M02 A3011 RMK AO2 SLP197 60010 70016 I6000 T00501022 10050 20022 53007
Loading
Personal Weather Stations






























Interactive Weather Map New forecast layout! Learn more

10-Day Weather Forecast

Advertisements
Track Severe Weather on mobile